createdAt,value
2023-02-01T00:01:11.720Z,3.66
2023-02-01T00:03:38.632Z,3.68
2023-02-01T00:06:05.432Z,3.67
2023-02-01T00:08:32.275Z,3.69
2023-02-01T00:11:04.472Z,3.72
2023-02-01T00:13:33.472Z,3.72
2023-02-01T00:16:08.747Z,3.71
2023-02-01T00:18:35.712Z,3.71
2023-02-01T00:21:02.708Z,3.69
2023-02-01T00:23:29.367Z,3.69
2023-02-01T00:25:55.862Z,3.67
2023-02-01T00:28:22.460Z,3.67
2023-02-01T00:30:57.758Z,3.66
2023-02-01T00:33:24.672Z,3.66
2023-02-01T00:35:51.345Z,3.67
2023-02-01T00:38:18.010Z,3.67
2023-02-01T00:40:44.690Z,3.67
2023-02-01T00:43:11.191Z,3.67
2023-02-01T00:45:37.732Z,3.69
2023-02-01T00:48:04.628Z,3.70
2023-02-01T00:50:31.189Z,3.71
2023-02-01T00:52:57.714Z,3.72
2023-02-01T00:55:24.460Z,3.71
2023-02-01T00:57:51.086Z,3.70
2023-02-01T01:00:18.287Z,3.70
2023-02-01T01:02:45.339Z,3.69
2023-02-01T01:05:12.389Z,3.69
2023-02-01T01:07:42.384Z,3.68
2023-02-01T01:10:09.366Z,3.70
2023-02-01T01:12:36.055Z,3.72
2023-02-01T01:15:03.295Z,3.73
2023-02-01T01:17:32.647Z,3.77
2023-02-01T01:20:00.047Z,3.78
2023-02-01T01:22:26.871Z,3.78
2023-02-01T01:24:53.907Z,3.82
2023-02-01T01:27:24.569Z,3.82
2023-02-01T01:29:51.322Z,3.83
2023-02-01T01:32:18.489Z,3.83
2023-02-01T01:34:45.734Z,3.83
2023-02-01T01:37:12.697Z,3.85
2023-02-01T01:39:39.493Z,3.87
2023-02-01T01:42:06.217Z,3.86
2023-02-01T01:45:00.147Z,3.87
2023-02-01T01:47:36.669Z,3.86
2023-02-01T01:50:07.364Z,3.86
2023-02-01T01:52:35.663Z,3.86
2023-02-01T01:55:02.751Z,3.87
2023-02-01T01:57:34.679Z,3.86
2023-02-01T02:00:12.452Z,3.88
2023-02-01T02:02:45.913Z,3.89
2023-02-01T02:05:14.676Z,3.88
2023-02-01T02:07:46.377Z,3.89
2023-02-01T02:10:14.538Z,3.89
2023-02-01T02:12:45.817Z,3.90
2023-02-01T02:15:15.029Z,3.91
2023-02-01T02:17:54.035Z,3.94
2023-02-01T02:20:35.935Z,3.98
2023-02-01T02:23:36.386Z,4.02
2023-02-01T02:26:14.953Z,4.02
2023-02-01T02:29:06.584Z,4.02
2023-02-01T02:31:55.253Z,4.03
2023-02-01T02:34:30.916Z,4.06
2023-02-01T02:37:25.997Z,4.07
2023-02-01T02:40:09.955Z,4.08
2023-02-01T02:43:00.656Z,4.10
2023-02-01T02:45:59.739Z,4.11
2023-02-01T02:48:45.633Z,4.11
2023-02-01T02:51:43.393Z,4.10
2023-02-01T02:54:34.905Z,4.10
2023-02-01T02:57:24.754Z,4.12
2023-02-01T03:00:12.392Z,4.12
2023-02-01T03:02:58.341Z,4.12
2023-02-01T03:05:26.486Z,4.11
2023-02-01T03:08:11.886Z,4.12
2023-02-01T03:10:38.653Z,4.11
2023-02-01T03:13:27.805Z,4.08
2023-02-01T03:16:15.812Z,4.07
2023-02-01T03:18:48.587Z,4.03
2023-02-01T03:21:25.247Z,3.99
2023-02-01T03:23:58.223Z,3.96
2023-02-01T03:26:28.293Z,3.93
2023-02-01T03:29:22.644Z,3.91
2023-02-01T03:31:49.746Z,3.89
2023-02-01T03:34:17.548Z,3.89
2023-02-01T03:36:57.413Z,3.87
2023-02-01T03:39:27.619Z,3.86
2023-02-01T03:41:56.767Z,3.84
2023-02-01T03:44:26.303Z,3.85
2023-02-01T03:47:01.210Z,3.84
2023-02-01T03:49:43.003Z,3.82
2023-02-01T03:52:23.920Z,3.75
2023-02-01T03:54:52.973Z,3.64
2023-02-01T03:57:27.505Z,3.57
2023-02-01T04:00:09.459Z,3.52
2023-02-01T04:02:41.054Z,3.47
2023-02-01T04:05:08.549Z,3.47
2023-02-01T04:07:35.499Z,3.46
2023-02-01T04:10:02.384Z,3.42
2023-02-01T04:12:31.330Z,3.40
2023-02-01T04:14:58.079Z,3.38
2023-02-01T04:17:25.090Z,3.37
2023-02-01T04:19:51.503Z,3.35
2023-02-01T04:22:18.009Z,3.30
2023-02-01T04:24:47.971Z,3.28
2023-02-01T04:27:14.901Z,3.24
2023-02-01T04:29:42.278Z,3.23
2023-02-01T04:32:08.832Z,3.21
2023-02-01T04:34:35.405Z,3.18
2023-02-01T04:37:02.384Z,3.17
2023-02-01T04:39:29.168Z,3.17
2023-02-01T04:41:55.729Z,3.18
2023-02-01T04:44:22.402Z,3.17
2023-02-01T04:46:49.129Z,3.17
2023-02-01T04:49:15.898Z,3.16
2023-02-01T04:51:43.440Z,3.18
2023-02-01T04:54:12.473Z,3.15
2023-02-01T04:56:39.610Z,3.13
2023-02-01T04:59:06.812Z,3.11
2023-02-01T05:01:33.902Z,3.11
2023-02-01T05:04:00.811Z,3.10
2023-02-01T05:06:27.804Z,3.10
2023-02-01T05:08:54.499Z,3.12
2023-02-01T05:11:39.882Z,3.15
2023-02-01T05:14:06.392Z,3.19
2023-02-01T05:16:34.920Z,3.23
2023-02-01T05:19:01.540Z,3.26
2023-02-01T05:21:28.080Z,3.28
2023-02-01T05:24:13.476Z,3.32
2023-02-01T05:26:41.653Z,3.33
2023-02-01T05:29:09.571Z,3.32
2023-02-01T05:31:36.346Z,3.33
2023-02-01T05:34:03.574Z,3.33
2023-02-01T05:36:30.348Z,3.32
2023-02-01T05:38:57.222Z,3.33
2023-02-01T05:41:23.936Z,3.32
2023-02-01T05:43:50.623Z,3.34
2023-02-01T05:46:17.178Z,3.32
2023-02-01T05:48:44.311Z,3.33
2023-02-01T05:51:11.887Z,3.35
2023-02-01T05:53:38.719Z,3.33
2023-02-01T05:56:05.895Z,3.31
2023-02-01T05:58:32.823Z,3.26
2023-02-01T06:01:03.840Z,3.24
2023-02-01T06:03:30.626Z,3.23
2023-02-01T06:05:57.301Z,3.20
2023-02-01T06:08:29.963Z,3.17
2023-02-01T06:11:30.556Z,3.14
2023-02-01T06:13:59.283Z,3.11
2023-02-01T06:16:25.971Z,3.10
2023-02-01T06:18:53.050Z,3.06
2023-02-01T06:21:24.640Z,3.02
2023-02-01T06:23:55.179Z,3.00
2023-02-01T06:26:22.382Z,2.96
2023-02-01T06:28:51.348Z,2.94
2023-02-01T06:31:18.143Z,2.91
2023-02-01T06:33:45.087Z,2.88
2023-02-01T06:36:13.430Z,2.84
2023-02-01T06:38:40.428Z,2.82
2023-02-01T06:41:07.208Z,2.79
2023-02-01T06:43:34.059Z,2.76
2023-02-01T06:46:07.022Z,2.74
2023-02-01T06:48:34.589Z,2.73
2023-02-01T06:51:01.233Z,2.74
2023-02-01T06:53:28.131Z,2.71
2023-02-01T06:56:04.167Z,2.71
2023-02-01T06:58:35.068Z,2.70
2023-02-01T07:01:09.543Z,2.71
2023-02-01T07:03:36.689Z,2.72
2023-02-01T07:06:04.592Z,2.72
2023-02-01T07:08:36.108Z,2.72
2023-02-01T07:11:17.168Z,2.72
2023-02-01T07:13:46.420Z,2.72
2023-02-01T07:16:19.385Z,2.72
2023-02-01T07:18:46.453Z,2.72
2023-02-01T07:21:13.639Z,2.72
2023-02-01T07:23:40.410Z,2.76
2023-02-01T07:26:08.822Z,2.79
2023-02-01T07:28:36.668Z,2.80
2023-02-01T07:31:08.368Z,2.81
2023-02-01T07:33:35.849Z,2.80
2023-02-01T07:36:07.873Z,2.83
2023-02-01T07:38:35.191Z,2.86
2023-02-01T07:41:03.726Z,2.89
2023-02-01T07:43:31.415Z,2.91
2023-02-01T07:45:58.640Z,2.95
2023-02-01T07:48:26.407Z,2.99
2023-02-01T07:51:07.092Z,3.04
2023-02-01T07:53:34.959Z,3.09
2023-02-01T07:56:01.977Z,3.15
2023-02-01T07:58:28.572Z,3.20
2023-02-01T08:01:14.237Z,3.24
2023-02-01T08:03:41.270Z,3.31
2023-02-01T08:06:08.120Z,3.36
2023-02-01T08:08:35.317Z,3.44
2023-02-01T08:11:02.509Z,3.48
2023-02-01T08:13:29.248Z,3.54
2023-02-01T08:16:00.731Z,3.57
2023-02-01T08:18:28.309Z,3.64
2023-02-01T08:20:55.126Z,3.70
2023-02-01T08:23:22.991Z,3.78
2023-02-01T08:25:50.180Z,3.83
2023-02-01T08:28:16.839Z,3.88
2023-02-01T08:30:43.676Z,3.91
2023-02-01T08:33:10.598Z,3.93
2023-02-01T08:35:43.907Z,3.98
2023-02-01T08:38:11.813Z,4.02
2023-02-01T08:40:38.560Z,4.04
2023-02-01T08:43:05.190Z,4.06
2023-02-01T08:45:32.132Z,4.05
2023-02-01T08:47:59.015Z,4.08
2023-02-01T08:50:26.449Z,4.11
2023-02-01T08:52:54.407Z,4.14
2023-02-01T08:55:21.558Z,4.15
2023-02-01T08:57:49.037Z,4.14
2023-02-01T09:00:18.879Z,4.10
2023-02-01T09:02:46.266Z,4.09
2023-02-01T09:05:13.343Z,4.10
2023-02-01T09:09:55.505Z,4.19
2023-02-01T09:12:22.536Z,4.21
2023-02-01T09:14:49.586Z,4.19
2023-02-01T09:17:16.208Z,4.16
2023-02-01T09:19:43.250Z,4.12
2023-02-01T09:22:09.770Z,4.07
2023-02-01T09:24:36.333Z,4.02
2023-02-01T09:27:02.944Z,3.96
2023-02-01T09:29:29.870Z,3.90
2023-02-01T09:32:03.235Z,3.89
2023-02-01T09:34:31.483Z,3.89
2023-02-01T09:36:58.172Z,3.90
2023-02-01T09:39:24.962Z,3.89
2023-02-01T09:42:15.309Z,3.89
2023-02-01T09:44:51.192Z,3.92
2023-02-01T09:47:22.689Z,3.93
2023-02-01T09:49:56.837Z,3.96
2023-02-01T09:52:39.544Z,3.98
2023-02-01T09:55:17.347Z,4.01
2023-02-01T09:57:53.161Z,4.08
2023-02-01T10:00:28.344Z,4.14
2023-02-01T10:02:56.386Z,4.21
2023-02-01T10:05:40.192Z,4.30
2023-02-01T10:08:20.378Z,4.35
2023-02-01T10:10:51.175Z,4.42
2023-02-01T10:13:50.225Z,4.49
2023-02-01T10:16:37.995Z,4.54
2023-02-01T10:19:22.423Z,4.59
2023-02-01T10:22:07.121Z,4.69
2023-02-01T10:24:53.808Z,4.79
2023-02-01T10:27:32.487Z,4.88
2023-02-01T10:30:01.644Z,4.95
2023-02-01T10:32:35.647Z,4.99
2023-02-01T10:35:22.990Z,5.02
2023-02-01T10:37:51.593Z,5.04
2023-02-01T10:40:26.922Z,5.07
2023-02-01T10:42:59.780Z,5.09
2023-02-01T10:45:29.886Z,5.12
2023-02-01T10:47:59.392Z,5.16
2023-02-01T10:50:31.217Z,5.20
2023-02-01T10:53:12.375Z,5.21
2023-02-01T10:55:46.886Z,5.21
2023-02-01T10:58:20.095Z,5.16
2023-02-01T11:00:55.368Z,5.09
2023-02-01T11:03:44.940Z,5.03
2023-02-01T11:06:14.260Z,4.98
2023-02-01T11:08:53.122Z,4.93
2023-02-01T11:11:21.502Z,4.88
2023-02-01T11:13:56.184Z,4.87
2023-02-01T11:16:39.357Z,4.85
2023-02-01T11:19:06.742Z,4.85
2023-02-01T11:21:35.106Z,4.87
2023-02-01T11:24:04.682Z,4.89
2023-02-01T11:26:33.822Z,4.91
2023-02-01T11:29:05.428Z,4.91
2023-02-01T11:31:35.010Z,4.90
2023-02-01T11:34:10.095Z,4.90
2023-02-01T11:36:37.870Z,4.87
2023-02-01T11:39:22.196Z,4.84
2023-02-01T11:42:01.146Z,4.80
2023-02-01T11:44:36.793Z,4.78
2023-02-01T11:47:25.101Z,4.78
2023-02-01T11:49:57.127Z,4.81
2023-02-01T11:52:46.410Z,4.86
2023-02-01T11:55:35.415Z,4.87
2023-02-01T11:58:20.953Z,4.87
2023-02-01T12:01:09.546Z,4.87
2023-02-01T12:03:51.141Z,4.85
2023-02-01T12:06:50.490Z,4.77
2023-02-01T12:09:27.175Z,4.71
2023-02-01T12:12:14.012Z,4.65
2023-02-01T12:14:53.461Z,4.60
2023-02-01T12:17:38.661Z,4.60
2023-02-01T12:20:14.627Z,4.59
2023-02-01T12:23:05.009Z,4.60
2023-02-01T12:25:58.480Z,4.61
2023-02-01T12:28:39.797Z,4.62
2023-02-01T12:31:35.923Z,4.64
2023-02-01T12:34:14.610Z,4.65
2023-02-01T12:37:09.224Z,4.67
2023-02-01T12:39:54.301Z,4.67
2023-02-01T12:42:27.163Z,4.64
2023-02-01T12:45:15.588Z,4.59
2023-02-01T12:48:21.863Z,4.50
2023-02-01T12:50:54.188Z,4.42
2023-02-01T12:53:31.408Z,4.35
2023-02-01T12:56:02.563Z,4.33
2023-02-01T12:58:39.979Z,4.26
2023-02-01T13:01:11.456Z,4.22
2023-02-01T13:03:51.354Z,4.18
2023-02-01T13:06:36.598Z,4.07
2023-02-01T13:09:21.528Z,4.03
2023-02-01T13:11:51.972Z,3.99
2023-02-01T13:14:34.878Z,3.89
2023-02-01T13:17:05.716Z,3.80
2023-02-01T13:19:56.985Z,3.71
2023-02-01T13:22:42.132Z,3.56
2023-02-01T13:25:17.194Z,3.53
2023-02-01T13:27:44.027Z,3.49
2023-02-01T13:30:25.141Z,3.49
2023-02-01T13:32:57.026Z,3.46
2023-02-01T13:36:05.170Z,3.44
2023-02-01T13:39:20.877Z,3.40
2023-02-01T13:41:56.643Z,3.36
2023-02-01T13:44:33.050Z,3.34
2023-02-01T13:47:04.253Z,3.32
2023-02-01T13:49:40.781Z,3.30
2023-02-01T13:52:22.841Z,3.32
2023-02-01T13:54:49.621Z,3.37
2023-02-01T13:57:38.986Z,3.42
2023-02-01T14:00:32.676Z,3.45
2023-02-01T14:03:00.151Z,3.46
2023-02-01T14:05:29.976Z,3.46
2023-02-01T14:08:05.823Z,3.45
2023-02-01T14:11:00.900Z,3.46
2023-02-01T14:13:29.403Z,3.47
2023-02-01T14:16:05.336Z,3.50
2023-02-01T14:18:46.517Z,3.52
2023-02-01T14:21:22.805Z,3.52
2023-02-01T14:24:00.013Z,3.52
2023-02-01T14:26:35.830Z,3.52
2023-02-01T14:29:21.741Z,3.50
2023-02-01T14:32:26.432Z,3.50
2023-02-01T14:35:00.235Z,3.52
2023-02-01T14:37:36.416Z,3.52
2023-02-01T14:40:15.123Z,3.49
2023-02-01T14:42:55.458Z,3.44
2023-02-01T14:45:25.901Z,3.39
2023-02-01T14:48:08.049Z,3.35
2023-02-01T14:50:41.599Z,3.31
2023-02-01T14:53:11.587Z,3.29
2023-02-01T14:56:05.186Z,3.29
2023-02-01T14:58:38.066Z,3.28
2023-02-01T15:01:34.622Z,3.29
2023-02-01T15:04:11.931Z,3.30
2023-02-01T15:06:59.561Z,3.33
2023-02-01T15:09:33.684Z,3.35
2023-02-01T15:12:18.540Z,3.38
2023-02-01T15:14:50.141Z,3.40
2023-02-01T15:17:34.925Z,3.41
2023-02-01T15:20:19.106Z,3.45
2023-02-01T15:23:02.326Z,3.48
2023-02-01T15:25:36.371Z,3.50
2023-02-01T15:28:03.472Z,3.53
2023-02-01T15:30:31.525Z,3.53
2023-02-01T15:33:16.127Z,3.54
2023-02-01T15:35:51.183Z,3.56
2023-02-01T15:38:21.525Z,3.55
2023-02-01T15:41:03.479Z,3.56
2023-02-01T15:43:33.650Z,3.55
2023-02-01T15:46:02.734Z,3.56
2023-02-01T15:48:37.680Z,3.57
2023-02-01T15:51:05.175Z,3.57
2023-02-01T15:53:32.619Z,3.58
2023-02-01T15:56:05.455Z,3.59
2023-02-01T15:58:35.330Z,3.59
2023-02-01T16:01:05.592Z,3.61
2023-02-01T16:03:38.967Z,3.61
2023-02-01T16:06:35.384Z,3.63
2023-02-01T16:09:04.809Z,3.63
2023-02-01T16:11:33.900Z,3.62
2023-02-01T16:14:06.829Z,3.62
2023-02-01T16:16:33.671Z,3.61
2023-02-01T16:19:00.266Z,3.60
2023-02-01T16:21:26.784Z,3.61
2023-02-01T16:23:53.776Z,3.63
2023-02-01T16:26:20.776Z,3.61
2023-02-01T16:28:48.101Z,3.61
2023-02-01T16:31:20.375Z,3.60
2023-02-01T16:33:49.993Z,3.58
2023-02-01T16:36:17.012Z,3.58
2023-02-01T16:38:43.515Z,3.57
2023-02-01T16:41:15.597Z,3.55
2023-02-01T16:43:42.723Z,3.56
2023-02-01T16:46:14.544Z,3.57
2023-02-01T16:48:43.798Z,3.57
2023-02-01T16:51:13.555Z,3.57
2023-02-01T16:53:53.458Z,3.57
2023-02-01T16:56:30.443Z,3.58
2023-02-01T16:58:57.609Z,3.59
2023-02-01T17:01:24.871Z,3.63
2023-02-01T17:03:51.749Z,3.66
2023-02-01T17:06:21.288Z,3.69
2023-02-01T17:08:52.352Z,3.73
2023-02-01T17:11:19.453Z,3.78
2023-02-01T17:13:46.378Z,3.81
2023-02-01T17:16:19.128Z,3.86
2023-02-01T17:18:57.368Z,3.87
2023-02-01T17:21:25.692Z,3.91
2023-02-01T17:23:53.675Z,3.96
2023-02-01T17:26:20.707Z,3.99
2023-02-01T17:28:47.423Z,4.01
2023-02-01T17:31:16.525Z,4.03
2023-02-01T17:33:44.552Z,4.05
2023-02-01T17:36:17.700Z,4.06
2023-02-01T17:38:48.785Z,4.09
2023-02-01T17:41:20.578Z,4.10
2023-02-01T17:43:48.232Z,4.12
2023-02-01T17:46:18.749Z,4.13
2023-02-01T17:48:45.547Z,4.13
2023-02-01T17:51:21.475Z,4.14
2023-02-01T17:53:48.607Z,4.13
2023-02-01T17:56:16.020Z,4.13
2023-02-01T17:58:43.975Z,4.12
2023-02-01T18:01:17.976Z,4.10
2023-02-01T18:03:48.439Z,4.08
2023-02-01T18:06:21.657Z,4.09
2023-02-01T18:08:48.410Z,4.07
2023-02-01T18:11:17.586Z,4.06
2023-02-01T18:13:44.284Z,4.06
2023-02-01T18:16:32.476Z,4.03
2023-02-01T18:19:02.493Z,4.01
2023-02-01T18:21:36.293Z,4.00
2023-02-01T18:24:03.937Z,3.99
2023-02-01T18:26:30.772Z,4.00
2023-02-01T18:29:00.640Z,4.00
2023-02-01T18:31:32.223Z,3.96
2023-02-01T18:34:00.114Z,3.97
2023-02-01T18:36:28.059Z,3.96
2023-02-01T18:38:57.559Z,3.97
2023-02-01T18:41:26.009Z,3.96
2023-02-01T18:43:53.126Z,3.97
2023-02-01T18:46:21.801Z,3.98
2023-02-01T18:48:49.257Z,4.00
2023-02-01T18:51:20.527Z,3.99
2023-02-01T18:53:48.394Z,3.98
2023-02-01T18:56:18.097Z,4.00
2023-02-01T18:58:45.060Z,4.02
2023-02-01T19:01:18.729Z,4.05
2023-02-01T19:03:47.824Z,4.07
2023-02-01T19:06:18.888Z,4.11
2023-02-01T19:08:47.027Z,4.15
2023-02-01T19:11:14.507Z,4.17
2023-02-01T19:13:41.339Z,4.17
2023-02-01T19:16:09.308Z,4.17
2023-02-01T19:18:38.003Z,4.12
2023-02-01T19:21:13.484Z,4.04
2023-02-01T19:23:41.716Z,4.00
2023-02-01T19:26:13.649Z,3.94
2023-02-01T19:28:40.259Z,3.90
2023-02-01T19:31:08.625Z,3.86
2023-02-01T19:33:35.681Z,3.78
2023-02-01T19:36:06.130Z,3.75
2023-02-01T19:38:33.571Z,3.70
2023-02-01T19:41:00.389Z,3.65
2023-02-01T19:43:26.933Z,3.64
2023-02-01T19:45:54.550Z,3.59
2023-02-01T19:48:21.328Z,3.56
2023-02-01T19:50:48.015Z,3.56
2023-02-01T19:53:14.781Z,3.56
2023-02-01T19:55:45.773Z,3.54
2023-02-01T19:58:12.490Z,3.55
2023-02-01T20:00:38.119Z,3.57
2023-02-01T20:03:04.902Z,3.58
2023-02-01T20:05:31.587Z,3.59
2023-02-01T20:08:00.634Z,3.59
2023-02-01T20:10:27.312Z,3.61
2023-02-01T20:12:53.958Z,3.58
2023-02-01T20:15:24.432Z,3.56
2023-02-01T20:17:51.532Z,3.54
2023-02-01T20:20:18.340Z,3.51
2023-02-01T20:22:45.432Z,3.50
2023-02-01T20:25:12.845Z,3.49
2023-02-01T20:27:40.447Z,3.49
2023-02-01T20:30:07.708Z,3.49
2023-02-01T20:32:34.456Z,3.50
2023-02-01T20:35:01.045Z,3.52
2023-02-01T20:37:27.794Z,3.55
2023-02-01T20:39:54.788Z,3.57
2023-02-01T20:42:21.412Z,3.62
2023-02-01T20:44:48.221Z,3.64
2023-02-01T20:47:15.032Z,3.67
2023-02-01T20:49:41.597Z,3.68
2023-02-01T20:52:08.168Z,3.69
2023-02-01T20:54:34.836Z,3.73
2023-02-01T20:57:01.988Z,3.77
2023-02-01T20:59:28.745Z,3.81
2023-02-01T21:01:55.369Z,3.84
2023-02-01T21:04:27.129Z,3.87
2023-02-01T21:06:58.903Z,3.91
2023-02-01T21:09:26.866Z,3.93
2023-02-01T21:11:54.487Z,3.94
2023-02-01T21:14:21.374Z,3.96
2023-02-01T21:16:48.806Z,3.99
2023-02-01T21:19:17.542Z,4.00
2023-02-01T21:21:44.946Z,4.01
2023-02-01T21:24:11.536Z,4.04
2023-02-01T21:26:41.185Z,4.06
2023-02-01T21:29:10.581Z,4.06
2023-02-01T21:31:38.396Z,4.06
2023-02-01T21:34:06.764Z,4.06
2023-02-01T21:36:35.010Z,4.08
2023-02-01T21:39:03.756Z,4.10
2023-02-01T21:41:50.981Z,4.14
2023-02-01T21:44:18.123Z,4.17
2023-02-01T21:46:45.111Z,4.16
2023-02-01T21:49:11.960Z,4.18
2023-02-01T21:51:39.081Z,4.20
2023-02-01T21:54:07.190Z,4.23
2023-02-01T21:56:33.834Z,4.24
2023-02-01T21:59:00.755Z,4.24
2023-02-01T22:01:27.752Z,4.25
2023-02-01T22:03:54.728Z,4.27
2023-02-01T22:06:33.465Z,4.31
2023-02-01T22:09:00.279Z,4.32
2023-02-01T22:11:27.345Z,4.35
2023-02-01T22:13:53.996Z,4.35
2023-02-01T22:16:21.492Z,4.35
2023-02-01T22:18:50.072Z,4.34
2023-02-01T22:21:17.390Z,4.35
2023-02-01T22:23:44.180Z,4.35
2023-02-01T22:26:14.044Z,4.36
2023-02-01T22:28:40.774Z,4.38
2023-02-01T22:31:09.682Z,4.38
2023-02-01T22:33:37.809Z,4.38
2023-02-01T22:36:05.674Z,4.38
2023-02-01T22:38:33.752Z,4.40
2023-02-01T22:41:02.794Z,4.41
2023-02-01T22:43:30.219Z,4.43
2023-02-01T22:46:07.322Z,4.43
2023-02-01T22:48:38.898Z,4.45
2023-02-01T22:51:07.773Z,4.47
2023-02-01T22:53:34.585Z,4.49
2023-02-01T22:56:02.971Z,4.51
2023-02-01T22:58:30.070Z,4.53
2023-02-01T23:00:56.604Z,4.55
2023-02-01T23:03:23.347Z,4.55
2023-02-01T23:05:50.009Z,4.57
2023-02-01T23:08:16.661Z,4.57
2023-02-01T23:10:43.483Z,4.57
2023-02-01T23:13:10.017Z,4.56
2023-02-01T23:15:39.522Z,4.55
2023-02-01T23:18:06.107Z,4.55
2023-02-01T23:20:32.842Z,4.54
2023-02-01T23:22:59.623Z,4.51
2023-02-01T23:25:26.329Z,4.49
2023-02-01T23:27:53.019Z,4.45
2023-02-01T23:30:20.147Z,4.44
2023-02-01T23:32:46.609Z,4.43
2023-02-01T23:35:13.514Z,4.41
2023-02-01T23:37:40.788Z,4.40
2023-02-01T23:40:08.104Z,4.39
2023-02-01T23:42:35.588Z,4.39
2023-02-01T23:45:02.884Z,4.39
2023-02-01T23:47:29.622Z,4.39
2023-02-01T23:49:56.297Z,4.40
2023-02-01T23:52:22.886Z,4.39
2023-02-01T23:54:49.765Z,4.38
2023-02-01T23:57:16.297Z,4.37
2023-02-01T23:59:42.831Z,4.37
